Time;durP1;ratioP1;P1;durP2;ratioP2;P2;SDS_P1;SDS_P2;PMS_P1;PMS_P2;Temp;Humidity;BMP_temperature;BMP_pressure;BME280_temperature;BME280_humidity;BME280_pressure;Samples;Min_cycle;Max_cycle;Signal;HPM_P1;HPM_P2
2022/06/27 00:01:58;;;;;;;6.12;5.53;;;;;;;21.29;68.67;100152.38;1811018;78;21072;-77
2022/06/27 00:04:24;;;;;;;5.50;4.90;;;;;;;21.27;69.17;100153.68;1752420;80;21014;-77
2022/06/27 00:06:51;;;;;;;5.90;5.30;;;;;;;21.22;69.11;100152.99;1817806;78;21211;-77
2022/06/27 00:09:19;;;;;;;5.50;4.80;;;;;;;21.20;68.99;100149.70;1818014;77;21025;-78
2022/06/27 00:11:49;;;;;;;5.72;5.08;;;;;;;21.25;68.97;100151.70;1817856;77;20974;-79
2022/06/27 00:14:16;;;;;;;5.95;5.40;;;;;;;21.32;68.89;100145.69;1819026;77;21010;-79
2022/06/27 00:16:43;;;;;;;5.78;5.05;;;;;;;21.30;69.02;100155.37;1842256;77;22067;-79
2022/06/27 00:19:09;;;;;;;6.80;4.95;;;;;;;21.29;69.06;100147.52;1822416;77;21768;-76
2022/06/27 00:21:37;;;;;;;6.67;5.35;;;;;;;21.26;69.39;100147.42;1826190;77;21042;-78
2022/06/27 00:24:05;;;;;;;6.17;5.58;;;;;;;21.21;69.35;100152.71;1750161;79;21122;-78
2022/06/27 00:26:32;;;;;;;6.40;5.80;;;;;;;21.17;69.39;100147.44;1795644;79;21033;-78
2022/06/27 00:28:59;;;;;;;5.67;5.20;;;;;;;21.12;70.03;100152.19;1791487;79;21566;-79
2022/06/27 00:31:26;;;;;;;9.30;5.75;;;;;;;21.09;70.24;100149.11;1788059;79;21119;-77
2022/06/27 00:33:52;;;;;;;6.10;5.30;;;;;;;21.14;70.20;100151.97;1794574;79;21010;-79
2022/06/27 00:36:19;;;;;;;9.53;4.72;;;;;;;21.12;70.17;100151.37;1772691;80;21072;-79
2022/06/27 00:38:46;;;;;;;6.42;5.78;;;;;;;21.09;70.07;100155.86;1758743;79;21080;-76
2022/06/27 00:41:12;;;;;;;7.37;6.22;;;;;;;21.05;70.42;100153.32;1754430;80;21030;-77
2022/06/27 00:43:44;;;;;;;6.42;5.75;;;;;;;21.00;70.47;100155.36;1767230;80;21301;-75
2022/06/27 00:46:11;;;;;;;6.62;5.55;;;;;;;20.96;70.46;100160.39;1752879;80;21024;-76
2022/06/27 00:48:38;;;;;;;7.80;5.90;;;;;;;20.91;70.64;100169.69;1762909;80;21108;-74
2022/06/27 00:51:05;;;;;;;5.75;5.22;;;;;;;20.89;70.90;100166.92;1761657;80;21024;-77
2022/06/27 00:53:34;;;;;;;5.78;5.30;;;;;;;20.87;71.46;100168.48;1820661;77;20990;-76
2022/06/27 00:56:00;;;;;;;6.08;5.55;;;;;;;20.90;71.07;100159.10;1811892;77;21127;-78
2022/06/27 00:58:27;;;;;;;6.22;5.62;;;;;;;20.87;71.34;100163.63;1816667;77;21109;-77
2022/06/27 01:00:54;;;;;;;6.80;6.20;;;;;;;20.78;71.72;100157.68;1761178;79;22329;-76
2022/06/27 01:03:20;;;;;;;7.10;5.53;;;;;;;20.68;72.53;100163.60;1807014;79;21025;-75
2022/06/27 01:05:52;;;;;;;6.50;5.60;;;;;;;20.61;72.36;100163.69;1758959;80;21494;-78
2022/06/27 01:08:23;;;;;;;6.45;5.80;;;;;;;20.56;72.47;100164.84;1762556;79;21091;-76
2022/06/27 01:10:50;;;;;;;6.00;5.50;;;;;;;20.53;72.58;100168.51;1813264;77;21061;-75
2022/06/27 01:13:17;;;;;;;6.00;5.45;;;;;;;20.57;72.24;100165.66;1797492;77;21092;-75
2022/06/27 01:15:45;;;;;;;6.70;6.10;;;;;;;20.65;72.46;100162.72;1804329;77;20996;-79
2022/06/27 01:18:12;;;;;;;7.33;6.50;;;;;;;20.61;72.38;100162.34;1818103;77;21092;-79
2022/06/27 01:20:44;;;;;;;8.00;5.83;;;;;;;20.59;73.12;100168.48;1816464;78;21540;-77
2022/06/27 01:23:11;;;;;;;7.37;6.25;;;;;;;20.51;73.18;100164.67;1769666;79;20992;-79
2022/06/27 01:25:38;;;;;;;6.62;5.55;;;;;;;20.54;72.74;100170.17;1769224;79;21026;-80
2022/06/27 01:28:06;;;;;;;6.75;6.15;;;;;;;20.51;73.15;100170.61;1742998;80;20958;-77
2022/06/27 01:30:34;;;;;;;6.60;6.00;;;;;;;20.46;72.96;100170.47;1806521;78;21014;-79
2022/06/27 01:33:00;;;;;;;6.28;5.60;;;;;;;20.48;72.81;100170.54;1813640;77;21096;-78
2022/06/27 01:35:27;;;;;;;7.12;5.87;;;;;;;20.55;72.65;100169.95;1820427;78;21021;-79
2022/06/27 01:37:54;;;;;;;8.30;5.97;;;;;;;20.53;72.63;100169.86;1818866;77;20985;-78
2022/06/27 01:40:22;;;;;;;6.50;5.75;;;;;;;20.49;72.61;100169.47;1814791;77;21538;-80
2022/06/27 01:42:51;;;;;;;7.17;6.10;;;;;;;20.45;73.28;100169.63;1793730;78;21005;-77
2022/06/27 01:45:18;;;;;;;6.65;5.35;;;;;;;20.37;73.38;100168.03;1793005;79;21823;-76
2022/06/27 01:47:45;;;;;;;7.42;5.80;;;;;;;20.35;73.60;100171.48;1780279;79;21000;-77
2022/06/27 01:50:13;;;;;;;6.33;5.83;;;;;;;20.43;73.32;100170.37;1803104;77;21115;-79
2022/06/27 01:52:42;;;;;;;6.53;5.87;;;;;;;20.41;73.32;100167.07;1811043;77;21025;-79
2022/06/27 01:55:09;;;;;;;7.97;6.50;;;;;;;20.39;73.61;100175.38;1814818;77;21399;-78
2022/06/27 01:57:37;;;;;;;7.22;6.50;;;;;;;20.33;73.91;100170.88;1810510;78;21191;-77
2022/06/27 02:00:06;;;;;;;7.65;6.83;;;;;;;20.29;73.82;100175.07;1813888;78;21037;-78
2022/06/27 02:02:38;;;;;;;6.50;6.00;;;;;;;20.26;74.29;100167.41;1808016;77;21006;-77
2022/06/27 02:05:06;;;;;;;10.55;5.90;;;;;;;20.26;74.68;100173.34;1818396;78;20990;-79
2022/06/27 02:07:37;;;;;;;7.05;6.35;;;;;;;20.31;74.48;100174.86;1805413;77;21020;-79
2022/06/27 02:10:05;;;;;;;6.83;6.12;;;;;;;20.28;74.16;100176.63;1799172;78;21277;-76
2022/06/27 02:12:33;;;;;;;6.95;6.37;;;;;;;20.27;74.53;100182.56;1817312;77;21045;-78
2022/06/27 02:15:00;;;;;;;7.10;6.17;;;;;;;20.27;74.42;100184.44;1819304;77;21508;-77
2022/06/27 02:17:31;;;;;;;6.78;6.28;;;;;;;20.26;74.66;100179.55;1818952;77;21041;-76
2022/06/27 02:19:58;;;;;;;7.37;6.75;;;;;;;20.24;74.77;100176.25;1824377;77;21517;-78
2022/06/27 02:22:25;;;;;;;7.65;6.03;;;;;;;20.30;74.63;100181.28;1828869;77;21902;-79
2022/06/27 02:24:52;;;;;;;6.58;6.03;;;;;;;20.41;75.07;100186.78;1825517;78;21060;-79
2022/06/27 02:27:19;;;;;;;7.28;6.55;;;;;;;20.43;74.56;100186.56;1824121;78;21103;-77
2022/06/27 02:29:45;;;;;;;6.37;5.87;;;;;;;20.43;74.63;100183.86;1826202;78;20963;-77
2022/06/27 02:32:12;;;;;;;6.67;5.70;;;;;;;20.45;74.64;100189.86;1811084;77;21044;-76
2022/06/27 02:34:40;;;;;;;8.78;6.30;;;;;;;20.45;74.96;100189.05;1812283;77;21029;-80
2022/06/27 02:37:06;;;;;;;6.20;5.70;;;;;;;20.43;74.66;100187.38;1779408;78;21090;-78
2022/06/27 02:39:36;;;;;;;6.70;6.10;;;;;;;20.51;74.36;100190.84;1833492;78;21041;-77
2022/06/27 02:42:03;;;;;;;6.55;6.03;;;;;;;20.61;74.06;100193.37;1821800;77;21587;-80
2022/06/27 02:44:31;;;;;;;11.33;6.15;;;;;;;20.62;74.36;100190.97;1776868;79;21530;-77
2022/06/27 02:46:59;;;;;;;6.60;6.00;;;;;;;20.63;74.13;100194.52;1769891;79;21244;-77
2022/06/27 02:49:26;;;;;;;6.67;6.00;;;;;;;20.65;74.02;100194.27;1814847;77;21059;-77
2022/06/27 02:52:24;;;;;;;6.15;5.65;;;;;;;20.66;73.94;100199.45;1818043;77;21042;-75
2022/06/27 02:55:02;;;;;;;6.62;5.92;;;;;;;20.66;74.16;100200.80;1836245;78;20987;-75
2022/06/27 02:57:57;;;;;;;7.08;6.40;;;;;;;20.76;74.16;100201.62;1820719;77;21575;-77
2022/06/27 03:00:24;;;;;;;7.17;6.22;;;;;;;20.78;75.08;100199.53;1784161;79;21078;-76
2022/06/27 03:02:51;;;;;;;8.28;6.10;;;;;;;20.74;74.50;100201.84;1768519;79;20998;-77
2022/06/27 03:05:26;;;;;;;7.70;6.25;;;;;;;20.72;74.68;100201.25;1745029;77;20993;-74
2022/06/27 03:07:52;;;;;;;6.50;5.90;;;;;;;20.67;74.82;100205.66;1817931;77;21009;-74
2022/06/27 03:10:21;;;;;;;5.58;5.10;;;;;;;20.63;75.00;100202.61;1816610;77;21047;-76
2022/06/27 03:12:47;;;;;;;6.83;6.12;;;;;;;20.67;75.30;100205.66;1793440;78;21274;-76
2022/06/27 03:15:15;;;;;;;7.92;6.30;;;;;;;20.73;75.50;100204.80;1825605;77;21014;-77
2022/06/27 03:17:43;;;;;;;6.80;6.08;;;;;;;20.71;75.72;100207.71;1834722;77;22050;-79
2022/06/27 03:20:28;;;;;;;6.60;6.00;;;;;;;20.70;75.46;100202.53;1830972;77;21005;-77
2022/06/27 03:23:08;;;;;;;6.78;6.28;;;;;;;20.74;75.17;100197.80;1824140;77;21010;-79
2022/06/27 03:25:43;;;;;;;6.83;5.83;;;;;;;20.82;74.83;100206.13;1821097;77;21304;-78
2022/06/27 03:28:09;;;;;;;6.65;6.05;;;;;;;20.85;74.64;100204.34;1814721;78;21021;-77
2022/06/27 03:30:36;;;;;;;6.75;6.15;;;;;;;20.94;74.72;100208.41;1840868;77;21608;-77
2022/06/27 03:33:03;;;;;;;7.83;6.42;;;;;;;21.10;73.97;100214.25;1786856;78;21022;-78
2022/06/27 03:35:33;;;;;;;6.97;6.12;;;;;;;21.13;74.00;100215.98;1839216;77;20950;-77
2022/06/27 03:38:01;;;;;;;7.92;6.35;;;;;;;21.17;74.39;100209.57;1826532;77;22309;-78
2022/06/27 03:40:29;;;;;;;7.03;6.35;;;;;;;21.22;73.96;100212.43;1827496;77;20966;-76
2022/06/27 03:42:56;;;;;;;7.00;6.40;;;;;;;21.29;73.58;100211.02;1833794;77;21063;-77
2022/06/27 03:45:23;;;;;;;7.92;6.40;;;;;;;21.32;73.69;100210.01;1846586;77;20998;-77
2022/06/27 03:47:52;;;;;;;6.67;6.08;;;;;;;21.43;73.51;100211.13;1827286;77;21055;-77
2022/06/27 03:50:33;;;;;;;7.60;6.65;;;;;;;21.56;73.13;100215.58;1815784;77;21111;-78
2022/06/27 03:52:59;;;;;;;8.40;7.67;;;;;;;21.60;72.95;100210.00;1801953;77;21053;-76
2022/06/27 03:55:26;;;;;;;7.25;6.08;;;;;;;21.65;72.86;100210.12;1827130;77;21108;-77
2022/06/27 03:57:57;;;;;;;7.08;6.40;;;;;;;21.71;73.04;100211.08;1812658;77;21533;-76
2022/06/27 04:00:32;;;;;;;7.80;6.53;;;;;;;21.75;72.73;100211.77;1826811;77;21064;-78
2022/06/27 04:02:56;;;;;;;7.75;6.42;;;;;;;21.79;72.46;100212.12;1787315;79;21557;-78
2022/06/27 04:05:32;;;;;;;10.80;6.20;;;;;;;21.80;72.26;100204.30;1774007;80;21545;-75
2022/06/27 04:07:59;;;;;;;6.75;5.75;;;;;;;21.88;71.87;100195.84;1787120;79;21072;-77
2022/06/27 04:10:28;;;;;;;12.55;6.55;;;;;;;22.02;71.64;100199.70;1754577;80;21027;-81
2022/06/27 04:12:54;;;;;;;6.75;6.15;;;;;;;22.09;71.34;100201.24;1825500;77;21126;-81
2022/06/27 04:15:29;;;;;;;7.25;6.50;;;;;;;22.16;71.07;100210.08;1788706;77;21159;-82
2022/06/27 04:17:57;;;;;;;6.90;6.20;;;;;;;22.25;70.87;100207.91;1783970;79;20955;-83
2022/06/27 04:20:37;;;;;;;7.03;6.35;;;;;;;22.36;70.88;100208.95;1808409;77;20956;-81
2022/06/27 04:23:06;;;;;;;9.18;6.55;;;;;;;22.46;70.65;100207.83;1848315;77;20978;-82
2022/06/27 04:25:52;;;;;;;7.10;6.45;;;;;;;22.54;70.32;100206.15;1833534;77;21061;-82
2022/06/27 04:28:19;;;;;;;6.97;5.87;;;;;;;22.63;69.68;100205.78;1827502;77;21121;-82
2022/06/27 04:30:46;;;;;;;7.22;6.50;;;;;;;22.70;69.28;100203.78;1823304;77;21522;-81
2022/06/27 04:33:14;;;;;;;7.17;6.00;;;;;;;22.76;69.12;100196.06;1829242;77;21003;-83
2022/06/27 04:35:42;;;;;;;6.12;5.62;;;;;;;22.82;68.72;100193.75;1829068;77;21041;-81
2022/06/27 04:38:08;;;;;;;6.85;5.90;;;;;;;22.92;68.36;100200.73;1761222;80;21093;-83
2022/06/27 04:40:40;;;;;;;6.97;6.28;;;;;;;23.01;68.37;100204.45;1844001;77;21640;-80
2022/06/27 04:43:08;;;;;;;7.33;6.30;;;;;;;23.14;67.74;100198.77;1836014;77;20938;-80
2022/06/27 04:48:38;;;;;;;6.85;6.10;;;;;;;23.35;67.21;100208.97;1677563;80;21675;-77
2022/06/27 04:51:06;;;;;;;8.83;5.90;;;;;;;23.51;66.83;100200.59;1694130;83;21472;-76
2022/06/27 04:53:33;;;;;;;6.92;6.12;;;;;;;23.64;66.79;100198.64;1700035;84;21857;-74
2022/06/27 04:56:00;;;;;;;7.53;6.83;;;;;;;23.80;66.28;100197.05;1686234;84;21106;-75
2022/06/27 04:58:27;;;;;;;7.05;6.35;;;;;;;23.92;66.10;100200.00;1690676;83;21506;-75
2022/06/27 05:00:55;;;;;;;6.85;6.03;;;;;;;23.99;65.64;100203.08;1695893;83;21037;-72
2022/06/27 05:03:26;;;;;;;6.97;6.27;;;;;;;24.01;65.09;100198.23;1698679;83;21070;-74
2022/06/27 05:05:55;;;;;;;6.17;5.75;;;;;;;24.00;65.03;100200.13;1743589;80;21689;-75
2022/06/27 05:08:21;;;;;;;7.75;5.65;;;;;;;24.00;64.91;100192.53;1704248;80;22137;-74
2022/06/27 05:10:48;;;;;;;6.85;5.70;;;;;;;24.02;64.65;100197.17;1744388;80;21054;-73
2022/06/27 05:13:15;;;;;;;6.47;5.60;;;;;;;24.05;64.72;100199.38;1739860;81;21102;-74
2022/06/27 05:15:42;;;;;;;8.30;5.72;;;;;;;24.09;65.04;100205.44;1736001;81;21020;-74
2022/06/27 05:18:09;;;;;;;8.03;5.97;;;;;;;24.14;65.08;100201.47;1745119;81;21096;-74
2022/06/27 05:20:35;;;;;;;6.30;5.70;;;;;;;24.18;65.03;100195.52;1744470;80;21378;-74
2022/06/27 05:23:02;;;;;;;5.80;5.25;;;;;;;24.25;64.86;100204.33;1718180;81;21587;-74
2022/06/27 05:25:29;;;;;;;6.90;5.50;;;;;;;24.34;64.58;100205.56;1732685;80;21539;-74
2022/06/27 05:27:56;;;;;;;7.90;5.70;;;;;;;24.42;64.40;100202.97;1740345;80;21158;-74
2022/06/27 05:30:22;;;;;;;6.35;5.72;;;;;;;24.48;64.18;100204.14;1741472;80;21570;-72
2022/06/27 05:32:50;;;;;;;5.60;4.97;;;;;;;24.56;64.02;100210.27;1732054;82;21118;-73
2022/06/27 05:35:16;;;;;;;6.40;5.90;;;;;;;24.63;64.46;100203.58;1739774;80;21554;-74
2022/06/27 05:37:45;;;;;;;5.97;5.35;;;;;;;24.66;64.20;100196.81;1739158;81;21576;-75
2022/06/27 05:40:14;;;;;;;6.60;5.85;;;;;;;24.71;64.21;100204.50;1745107;80;21038;-75
2022/06/27 05:42:41;;;;;;;6.42;5.90;;;;;;;24.75;63.77;100199.39;1691525;84;21617;-74
2022/06/27 05:45:10;;;;;;;6.47;5.87;;;;;;;24.78;63.94;100207.03;1692718;83;21065;-75
2022/06/27 05:47:39;;;;;;;6.55;5.95;;;;;;;24.79;63.78;100214.66;1698462;82;21057;-73
2022/06/27 05:50:13;;;;;;;10.15;6.05;;;;;;;24.78;63.73;100217.89;1716691;82;21147;-73
2022/06/27 05:52:40;;;;;;;6.58;5.97;;;;;;;24.82;63.77;100222.30;1714563;83;21065;-71
2022/06/27 05:55:08;;;;;;;7.15;5.95;;;;;;;24.84;63.74;100225.58;1716862;82;21902;-75
2022/06/27 05:57:37;;;;;;;6.37;5.83;;;;;;;24.87;63.72;100225.91;1712884;83;21019;-74
2022/06/27 06:00:05;;;;;;;6.72;6.03;;;;;;;24.95;63.83;100227.37;1718413;83;22076;-73
2022/06/27 06:02:36;;;;;;;6.08;5.37;;;;;;;25.05;63.58;100226.16;1699491;84;21040;-73
2022/06/27 06:05:03;;;;;;;6.10;5.50;;;;;;;25.15;63.28;100225.47;1699135;82;21076;-74
2022/06/27 06:07:30;;;;;;;9.30;5.25;;;;;;;25.21;62.67;100224.45;1698914;84;21554;-76
2022/06/27 06:09:57;;;;;;;7.80;5.12;;;;;;;25.28;62.63;100221.56;1699991;84;21060;-75
2022/06/27 06:12:25;;;;;;;6.33;5.72;;;;;;;25.35;62.60;100226.81;1699314;84;21022;-75
2022/06/27 06:14:52;;;;;;;5.95;5.35;;;;;;;25.45;62.27;100222.84;1695800;83;21025;-73
2022/06/27 06:17:19;;;;;;;6.42;5.47;;;;;;;25.56;62.13;100216.45;1700616;83;21048;-77
2022/06/27 06:19:46;;;;;;;5.97;5.53;;;;;;;25.66;61.40;100211.09;1700519;84;21248;-74
2022/06/27 06:22:13;;;;;;;5.80;4.85;;;;;;;25.75;61.29;100211.98;1693501;84;21064;-73
2022/06/27 06:24:39;;;;;;;6.58;5.42;;;;;;;25.81;61.22;100215.88;1693628;84;21080;-74
2022/06/27 06:27:06;;;;;;;5.62;5.05;;;;;;;25.86;60.90;100214.58;1692826;84;21057;-74
2022/06/27 06:29:35;;;;;;;5.83;5.40;;;;;;;25.93;61.02;100215.74;1699419;83;21048;-76
2022/06/27 06:32:04;;;;;;;6.08;5.50;;;;;;;26.00;60.37;100214.16;1699499;84;21229;-74
2022/06/27 06:34:31;;;;;;;6.35;5.58;;;;;;;26.05;60.36;100210.94;1695920;83;21081;-72
2022/06/27 06:36:57;;;;;;;9.13;5.70;;;;;;;26.08;60.32;100211.80;1694204;84;21042;-74
2022/06/27 06:39:24;;;;;;;8.65;5.33;;;;;;;26.15;60.71;100206.66;1694548;83;21021;-73
2022/06/27 06:41:52;;;;;;;6.72;6.03;;;;;;;26.26;60.94;100201.58;1693229;84;21044;-73
2022/06/27 06:44:19;;;;;;;6.65;5.95;;;;;;;26.36;60.69;100193.47;1699571;83;21577;-73
2022/06/27 06:46:52;;;;;;;;;;;;;;;26.41;60.38;100197.61;1701057;82;21066;-72
2022/06/27 06:49:23;;;;;;;5.65;5.10;;;;;;;26.43;60.21;100198.16;1709351;82;20475;-70
2022/06/27 06:51:50;;;;;;;5.67;5.17;;;;;;;26.43;59.79;100197.34;1706237;82;21519;-74
2022/06/27 06:54:20;;;;;;;6.55;5.53;;;;;;;26.44;60.04;100195.73;1707592;82;21149;-74
2022/06/27 06:56:46;;;;;;;6.33;5.20;;;;;;;26.47;59.95;100199.27;1707274;83;21137;-74
2022/06/27 06:59:14;;;;;;;5.60;5.10;;;;;;;26.49;59.67;100202.55;1714972;82;22144;-75
2022/06/27 07:01:41;;;;;;;6.17;5.40;;;;;;;26.53;59.48;100203.41;1719188;82;21110;-73
2022/06/27 07:04:08;;;;;;;5.85;5.25;;;;;;;26.55;59.00;100202.59;1705354;82;21045;-73
2022/06/27 07:06:36;;;;;;;5.50;5.00;;;;;;;26.56;59.11;100200.98;1704012;84;21038;-74
2022/06/27 07:09:04;;;;;;;7.28;4.92;;;;;;;26.57;59.10;100204.52;1704853;84;21215;-73
2022/06/27 07:11:32;;;;;;;6.42;5.60;;;;;;;26.61;59.37;100206.47;1704529;84;21080;-75
2022/06/27 07:13:59;;;;;;;7.17;5.70;;;;;;;26.74;58.95;100209.83;1718433;82;21081;-72
2022/06/27 07:16:26;;;;;;;8.45;6.08;;;;;;;26.81;59.13;100203.58;1741561;80;21104;-73
2022/06/27 07:18:54;;;;;;;6.58;5.72;;;;;;;26.86;59.26;100207.70;1702518;83;21064;-75
2022/06/27 07:21:21;;;;;;;6.35;5.25;;;;;;;26.90;58.99;100212.09;1703200;83;21632;-75
2022/06/27 07:23:50;;;;;;;5.62;5.12;;;;;;;26.96;59.00;100208.30;1706727;82;21032;-74
2022/06/27 07:26:18;;;;;;;6.85;5.95;;;;;;;27.04;58.50;100203.69;1706930;82;22428;-75
2022/06/27 07:28:45;;;;;;;7.47;5.35;;;;;;;27.14;58.51;100213.30;1711258;82;21110;-75
2022/06/27 07:31:15;;;;;;;6.25;5.40;;;;;;;27.23;58.01;100214.95;1709769;82;21151;-75
2022/06/27 07:33:44;;;;;;;6.45;4.97;;;;;;;27.27;57.68;100210.63;1706184;82;21103;-75
2022/06/27 07:36:17;;;;;;;5.97;5.22;;;;;;;27.34;57.88;100212.56;1698689;82;20990;-74
2022/06/27 07:38:47;;;;;;;6.67;5.33;;;;;;;27.40;58.09;100214.77;1705748;82;21052;-74
2022/06/27 07:41:15;;;;;;;6.00;5.50;;;;;;;27.47;58.22;100219.44;1714271;82;21612;-76
2022/06/27 07:43:44;;;;;;;6.42;5.92;;;;;;;27.58;57.99;100215.64;1711760;82;21214;-76
2022/06/27 07:46:10;;;;;;;7.08;5.90;;;;;;;27.67;57.85;100217.28;1702561;82;21221;-75
2022/06/27 07:48:37;;;;;;;6.35;5.75;;;;;;;27.69;57.62;100220.56;1705171;81;21048;-74
2022/06/27 07:51:04;;;;;;;6.25;5.53;;;;;;;27.73;57.90;100215.38;1688035;82;21059;-75
2022/06/27 07:53:30;;;;;;;6.00;5.30;;;;;;;27.78;57.88;100218.94;1691014;82;21033;-76
2022/06/27 07:56:00;;;;;;;5.83;4.90;;;;;;;27.88;57.74;100217.32;1697245;82;21045;-76
2022/06/27 07:58:35;;;;;;;5.90;5.40;;;;;;;28.01;57.60;100218.19;1692122;84;21501;-76
2022/06/27 08:01:06;;;;;;;7.90;5.67;;;;;;;28.11;56.79;100210.53;1694134;83;21069;-74
2022/06/27 08:03:48;;;;;;;5.20;4.80;;;;;;;28.19;56.73;100219.54;1675273;83;21057;-76
2022/06/27 08:06:22;;;;;;;5.47;4.97;;;;;;;28.28;56.44;100210.23;1680908;84;21035;-74
2022/06/27 08:08:53;;;;;;;6.22;5.65;;;;;;;28.38;55.87;100211.61;1685069;83;21073;-76
2022/06/27 08:11:26;;;;;;;6.78;5.30;;;;;;;28.49;55.89;100213.23;1679158;83;21229;-74
2022/06/27 08:13:55;;;;;;;6.15;5.45;;;;;;;28.62;54.84;100202.28;1675901;84;21061;-76
2022/06/27 08:16:25;;;;;;;6.50;5.60;;;;;;;28.69;54.67;100208.84;1688659;83;21065;-75
2022/06/27 08:18:52;;;;;;;5.80;5.12;;;;;;;28.73;54.22;100208.00;1690976;83;21017;-76
2022/06/27 08:21:25;;;;;;;5.85;5.35;;;;;;;28.71;54.25;100206.09;1696478;83;21145;-75
2022/06/27 08:26:45;;;;;;;5.95;5.33;;;;;;;28.82;54.89;100211.00;1853870;75;22301;-73
2022/06/27 08:29:12;;;;;;;6.00;5.28;;;;;;;28.87;54.54;100207.42;1831421;77;22285;-78
2022/06/27 08:31:41;;;;;;;27.77;8.03;;;;;;;28.97;54.38;100201.34;1818331;77;21980;-79
2022/06/27 08:34:08;;;;;;;36.50;8.75;;;;;;;29.08;53.83;100200.77;1834481;77;20898;-74
2022/06/27 08:36:40;;;;;;;10.32;5.90;;;;;;;29.18;53.67;100198.00;1828095;77;20996;-78
2022/06/27 08:39:11;;;;;;;10.63;5.87;;;;;;;29.28;53.72;100198.50;1835508;77;21106;-76
2022/06/27 08:41:38;;;;;;;28.32;8.20;;;;;;;29.40;53.21;100194.09;1825062;77;21015;-78
2022/06/27 08:44:06;;;;;;;10.60;6.03;;;;;;;29.53;53.07;100193.43;1823321;77;21252;-77
2022/06/27 08:46:33;;;;;;;12.58;6.10;;;;;;;29.63;52.65;100189.00;1832030;77;20895;-77
2022/06/27 08:49:00;;;;;;;19.23;6.87;;;;;;;29.66;52.50;100189.81;1816167;77;20969;-78
2022/06/27 08:51:27;;;;;;;7.25;5.12;;;;;;;29.67;52.08;100189.53;1789108;78;21044;-77
2022/06/27 08:53:54;;;;;;;26.37;6.80;;;;;;;29.68;52.30;100194.45;1790689;78;21091;-76
2022/06/27 08:56:22;;;;;;;7.37;5.47;;;;;;;29.81;51.91;100188.92;1801340;78;21756;-76
2022/06/27 08:58:49;;;;;;;10.50;6.30;;;;;;;29.96;51.48;100184.13;1759450;80;21159;-76
2022/06/27 09:01:21;;;;;;;6.90;5.28;;;;;;;30.15;51.15;100186.98;1776639;78;21536;-76
2022/06/27 09:04:06;;;;;;;6.65;5.50;;;;;;;30.32;50.79;100192.03;1775291;78;21559;-73
2022/06/27 09:06:43;;;;;;;6.80;5.20;;;;;;;30.51;50.27;100185.83;1776467;78;21042;-77
2022/06/27 09:09:13;;;;;;;6.37;4.45;;;;;;;30.68;50.13;100180.70;1785027;78;21101;-75
2022/06/27 09:11:42;;;;;;;7.42;5.08;;;;;;;30.82;49.83;100185.48;1773375;80;21018;-75
2022/06/27 09:14:43;;;;;;;5.53;5.12;;;;;;;30.89;49.52;100182.69;1787061;78;21532;-74
2022/06/27 09:17:16;;;;;;;5.78;4.60;;;;;;;30.92;48.97;100183.45;1740722;80;21113;-75
2022/06/27 09:19:50;;;;;;;4.62;4.22;;;;;;;30.96;47.94;100181.78;1781146;78;21520;-75
2022/06/27 09:22:19;;;;;;;5.72;4.10;;;;;;;31.03;47.14;100171.80;1782526;78;21262;-75
2022/06/27 09:25:06;;;;;;;4.90;4.40;;;;;;;31.15;46.55;100187.83;1788557;78;21033;-75
2022/06/27 09:27:46;;;;;;;4.50;4.10;;;;;;;31.32;46.06;100180.48;1794527;78;21099;-76
2022/06/27 09:30:23;;;;;;;4.70;4.10;;;;;;;31.49;46.05;100180.80;1794342;78;21670;-75
2022/06/27 09:32:54;;;;;;;10.78;4.40;;;;;;;31.87;45.13;100176.65;1810225;78;21091;-75
2022/06/27 09:35:28;;;;;;;6.00;4.40;;;;;;;32.33;44.66;100179.97;1767593;80;21594;-75
2022/06/27 09:37:58;;;;;;;4.80;3.95;;;;;;;32.85;44.10;100169.39;1779404;78;21147;-76
2022/06/27 09:40:26;;;;;;;6.33;4.50;;;;;;;33.23;44.00;100173.30;1770502;80;21245;-75
2022/06/27 09:42:55;;;;;;;4.37;3.98;;;;;;;33.43;43.46;100174.75;1780330;78;21116;-75
2022/06/27 09:45:27;;;;;;;4.60;4.15;;;;;;;33.32;42.82;100160.39;1790919;78;21088;-75
2022/06/27 09:48:01;;;;;;;5.85;4.25;;;;;;;32.98;42.81;100167.75;1771221;78;21134;-75
2022/06/27 09:50:29;;;;;;;4.97;3.42;;;;;;;32.63;43.19;100169.55;1782426;79;21088;-72
2022/06/27 09:52:56;;;;;;;4.30;3.90;;;;;;;32.37;43.70;100167.81;1780873;78;21076;-75
2022/06/27 09:55:23;;;;;;;5.65;3.80;;;;;;;32.37;43.91;100164.26;1779649;78;21056;-75
2022/06/27 09:57:52;;;;;;;6.12;3.80;;;;;;;32.62;43.52;100165.73;1788651;78;21079;-74
2022/06/27 10:00:20;;;;;;;4.40;4.05;;;;;;;33.06;42.90;100156.02;1771722;78;21845;-75
2022/06/27 10:02:47;;;;;;;5.25;4.17;;;;;;;33.58;42.20;100156.49;1760240;80;21032;-76
2022/06/27 10:05:16;;;;;;;4.17;3.80;;;;;;;34.13;41.45;100153.22;1789866;78;21054;-75
2022/06/27 10:08:00;;;;;;;5.50;4.30;;;;;;;34.65;41.11;100149.33;1789328;79;21076;-76
2022/06/27 10:10:57;;;;;;;6.05;4.40;;;;;;;34.99;40.90;100144.48;1784631;78;21598;-75
2022/06/27 10:13:24;;;;;;;7.55;4.25;;;;;;;35.22;40.56;100147.16;1735815;80;21171;-75
2022/06/27 10:15:50;;;;;;;4.47;4.08;;;;;;;35.21;39.78;100149.66;1757856;80;21355;-74
2022/06/27 10:18:17;;;;;;;5.75;4.22;;;;;;;35.26;39.36;100136.27;1762922;80;21077;-76
2022/06/27 10:20:47;;;;;;;4.30;3.90;;;;;;;35.29;39.24;100140.55;1786341;78;21006;-76
2022/06/27 10:23:21;;;;;;;4.97;4.15;;;;;;;35.47;38.98;100140.58;1779889;78;22072;-76
2022/06/27 10:25:48;;;;;;;4.08;3.67;;;;;;;35.74;38.74;100136.09;1784837;78;21255;-78
2022/06/27 10:28:17;;;;;;;4.20;3.80;;;;;;;35.96;38.35;100139.78;1782834;78;21012;-78
2022/06/27 10:30:54;;;;;;;4.28;3.83;;;;;;;36.03;37.85;100131.80;1768003;78;21049;-74
2022/06/27 10:33:29;;;;;;;4.08;3.67;;;;;;;36.08;37.86;100135.75;1753812;80;21073;-75
2022/06/27 10:38:37;;;;;;;7.60;4.37;;;;;;;35.68;38.00;100136.58;1783769;78;21060;-78
2022/06/27 10:41:09;;;;;;;5.50;3.85;;;;;;;35.22;38.43;100135.53;1789155;79;21550;-76
2022/06/27 10:43:51;;;;;;;4.10;3.70;;;;;;;34.73;38.75;100130.66;1788040;79;21567;-78
2022/06/27 10:46:23;;;;;;;6.03;4.25;;;;;;;34.59;39.07;100139.00;1758572;80;21107;-77
2022/06/27 10:48:50;;;;;;;;;;;;;;;34.83;38.98;100137.82;1778365;79;21479;-74
2022/06/27 10:51:33;;;;;;;5.55;3.98;;;;;;;35.38;38.34;100127.56;1782736;79;21825;-77
2022/06/27 10:54:08;;;;;;;4.55;4.05;;;;;;;35.79;38.68;100126.27;1789333;78;21095;-77
2022/06/27 10:56:39;;;;;;;3.87;3.58;;;;;;;36.48;37.77;100122.21;1783036;78;21509;-80
2022/06/27 10:59:15;;;;;;;4.58;3.85;;;;;;;37.14;36.96;100113.36;1784300;78;21030;-77
2022/06/27 11:02:00;;;;;;;4.55;3.90;;;;;;;37.57;35.75;100124.63;1765199;78;21138;-74
2022/06/27 11:04:31;;;;;;;4.67;3.80;;;;;;;37.60;35.45;100128.14;1782649;79;21368;-74
2022/06/27 11:07:08;;;;;;;4.60;4.20;;;;;;;37.26;35.36;100133.38;1777974;78;21075;-77
2022/06/27 11:09:43;;;;;;;4.67;3.47;;;;;;;36.82;35.40;100130.92;1781679;78;20985;-76
2022/06/27 11:12:11;;;;;;;5.42;3.80;;;;;;;36.39;35.64;100129.16;1784829;78;21018;-75
2022/06/27 11:14:51;;;;;;;3.80;3.50;;;;;;;36.30;35.99;100122.30;1776503;79;21030;-76
2022/06/27 11:17:43;;;;;;;7.40;3.33;;;;;;;36.55;36.10;100117.78;1779419;78;21085;-75
2022/06/27 11:20:20;;;;;;;3.80;3.50;;;;;;;37.03;35.47;100110.17;1791390;79;21057;-74
2022/06/27 11:22:52;;;;;;;5.17;3.65;;;;;;;37.44;34.49;100116.86;1785467;79;21088;-73
2022/06/27 11:25:19;;;;;;;;;;;;;;;37.33;34.50;100126.15;1791819;78;21099;-75
2022/06/27 11:27:55;;;;;;;3.98;3.60;;;;;;;37.00;34.27;100124.09;1787586;78;20171;-73
2022/06/27 11:33:25;;;;;;;3.85;3.45;;;;;;;36.63;34.17;100125.80;1787341;78;21037;-74
2022/06/27 11:35:53;;;;;;;;;;;;;;;36.87;33.48;100117.45;1787702;78;21516;-75
2022/06/27 11:38:22;;;;;;;4.50;4.05;;;;;;;37.27;33.17;100126.70;1790971;78;20168;-76
2022/06/27 11:41:11;;;;;;;4.97;3.55;;;;;;;37.76;32.93;100125.53;1795121;78;21500;-75
2022/06/27 11:44:07;;;;;;;5.00;3.20;;;;;;;38.29;32.01;100118.84;1787163;78;21218;-80
2022/06/27 11:46:45;;;;;;;3.92;3.60;;;;;;;38.58;31.68;100117.82;1781660;78;21075;-81
2022/06/27 11:49:16;;;;;;;3.60;3.27;;;;;;;38.84;31.74;100120.20;1788853;78;21563;-78
2022/06/27 11:51:47;;;;;;;4.42;4.03;;;;;;;39.16;30.93;100110.67;1777568;78;21103;-80